createdAt,value
2018-12-13T00:01:31.640Z,11.53
2018-12-13T00:04:01.297Z,8.83
2018-12-13T00:06:33.482Z,8.40
2018-12-13T00:09:05.324Z,8.13
2018-12-13T00:11:33.181Z,8.03
2018-12-13T00:14:03.474Z,10.40
2018-12-13T00:16:32.806Z,8.03
2018-12-13T00:19:02.602Z,7.80
2018-12-13T00:21:32.351Z,7.40
2018-12-13T00:24:02.340Z,8.43
2018-12-13T00:26:31.877Z,7.43
2018-12-13T00:29:01.910Z,7.33
2018-12-13T00:31:32.140Z,7.07
2018-12-13T00:34:01.960Z,8.07
2018-12-13T00:36:31.634Z,7.57
2018-12-13T00:39:01.503Z,8.07
2018-12-13T00:41:31.223Z,9.30
2018-12-13T00:44:01.236Z,6.87
2018-12-13T00:46:31.144Z,8.47
2018-12-13T00:49:01.032Z,8.77
2018-12-13T00:51:30.677Z,7.60
2018-12-13T00:53:59.749Z,7.67
2018-12-13T00:56:29.801Z,8.87
2018-12-13T00:58:57.498Z,7.23
2018-12-13T01:01:29.124Z,6.97
2018-12-13T01:03:59.120Z,8.37
2018-12-13T01:06:29.176Z,7.93
2018-12-13T01:08:57.263Z,7.87
2018-12-13T01:11:29.181Z,7.57
2018-12-13T01:13:57.363Z,8.87
2018-12-13T01:16:25.366Z,7.00
2018-12-13T01:18:56.409Z,8.47
2018-12-13T01:21:26.284Z,10.70
2018-12-13T01:23:56.344Z,9.23
2018-12-13T01:26:26.122Z,8.30
2018-12-13T01:28:56.255Z,8.87
2018-12-13T01:31:26.223Z,10.13
2018-12-13T01:34:04.123Z,9.20
2018-12-13T01:36:34.155Z,9.53
2018-12-13T01:39:04.043Z,9.10
2018-12-13T01:44:36.421Z,10.27
2018-12-13T01:47:07.261Z,9.27
2018-12-13T01:49:37.138Z,9.10
2018-12-13T01:52:07.029Z,9.20
2018-12-13T01:54:36.846Z,8.90
2018-12-13T01:57:06.763Z,9.77
2018-12-13T01:59:34.783Z,9.07
2018-12-13T02:02:04.590Z,10.33
2018-12-13T02:04:37.352Z,11.50
2018-12-13T02:07:09.389Z,8.47
2018-12-13T02:09:41.437Z,12.80
2018-12-13T02:12:11.224Z,10.77
2018-12-13T02:14:41.156Z,11.47
2018-12-13T02:17:08.794Z,8.97
2018-12-13T02:19:38.825Z,10.73
2018-12-13T02:22:08.738Z,11.53
2018-12-13T02:24:41.754Z,13.90
2018-12-13T02:27:21.350Z,8.33
2018-12-13T02:29:52.346Z,10.57
2018-12-13T02:32:22.280Z,12.40
2018-12-13T02:34:55.043Z,12.70
2018-12-13T02:37:26.899Z,10.17
2018-12-13T02:39:56.789Z,12.87
2018-12-13T02:42:26.435Z,11.13
2018-12-13T02:44:56.001Z,8.97
2018-12-13T02:47:25.689Z,10.43
2018-12-13T02:49:55.261Z,9.87
2018-12-13T02:52:27.805Z,10.13
2018-12-13T02:54:58.821Z,10.90
2018-12-13T02:57:28.433Z,10.90
2018-12-13T03:03:01.138Z,11.20
2018-12-13T03:05:31.138Z,9.57
2018-12-13T03:08:01.045Z,10.50
2018-12-13T03:10:31.043Z,10.33
2018-12-13T03:12:59.140Z,12.10
2018-12-13T03:15:29.255Z,8.97
2018-12-13T03:21:01.204Z,8.67
2018-12-13T03:23:31.003Z,10.20
2018-12-13T03:26:01.164Z,9.67
2018-12-13T03:28:29.189Z,11.03
2018-12-13T03:30:58.978Z,10.67
2018-12-13T03:33:28.858Z,12.87
2018-12-13T03:35:58.815Z,13.13
2018-12-13T03:38:28.492Z,9.60
2018-12-13T03:40:58.437Z,12.30
2018-12-13T03:43:29.919Z,11.40
2018-12-13T03:45:57.797Z,10.30
2018-12-13T03:48:27.974Z,9.87
2018-12-13T03:50:57.605Z,11.40
2018-12-13T03:53:27.217Z,11.97
2018-12-13T03:55:57.059Z,10.87
2018-12-13T03:58:26.829Z,12.53
2018-12-13T04:00:56.570Z,11.43
2018-12-13T04:03:29.087Z,9.37
2018-12-13T04:06:00.056Z,11.03
2018-12-13T04:08:29.641Z,10.70
2018-12-13T04:10:59.240Z,10.20
2018-12-13T04:13:28.901Z,11.53
2018-12-13T04:15:58.509Z,13.23
2018-12-13T04:18:31.144Z,11.57
2018-12-13T04:20:58.974Z,11.80
2018-12-13T04:23:26.687Z,12.50
2018-12-13T04:25:56.361Z,11.33
2018-12-13T04:28:25.821Z,12.97
2018-12-13T04:30:55.340Z,9.33
2018-12-13T04:33:25.190Z,12.83
2018-12-13T04:35:54.765Z,13.50
2018-12-13T04:38:27.291Z,13.60
2018-12-13T04:40:57.094Z,12.43
2018-12-13T04:43:26.898Z,15.40
2018-12-13T04:45:56.437Z,13.97
2018-12-13T04:48:24.195Z,12.30
2018-12-13T04:50:54.006Z,15.10
2018-12-13T04:53:26.519Z,14.87
2018-12-13T04:55:56.413Z,18.30
2018-12-13T04:58:26.067Z,20.33
2018-12-13T05:00:53.661Z,14.20
2018-12-13T05:03:23.500Z,15.90
2018-12-13T05:05:53.248Z,17.00
2018-12-13T05:08:23.205Z,29.13
2018-12-13T05:10:53.030Z,16.93
2018-12-13T05:13:22.478Z,16.50
2018-12-13T05:15:52.229Z,13.33
2018-12-13T05:18:21.799Z,14.03
2018-12-13T05:20:51.149Z,15.27
2018-12-13T05:23:20.897Z,16.97
2018-12-13T05:25:50.783Z,16.43
2018-12-13T05:28:21.190Z,13.20
2018-12-13T05:30:52.034Z,13.20
2018-12-13T05:33:21.833Z,14.70
2018-12-13T05:35:54.182Z,14.13
2018-12-13T05:38:23.787Z,13.53
2018-12-13T05:40:53.678Z,12.67
2018-12-13T05:43:23.206Z,11.07
2018-12-13T05:45:53.294Z,11.50
2018-12-13T05:48:23.106Z,17.67
2018-12-13T05:50:53.107Z,17.53
2018-12-13T05:53:22.733Z,18.20
2018-12-13T05:55:52.644Z,17.10
2018-12-13T05:58:22.347Z,18.50
2018-12-13T06:00:52.253Z,22.80
2018-12-13T06:03:22.057Z,19.23
2018-12-13T06:05:54.573Z,21.10
2018-12-13T06:08:22.683Z,19.67
2018-12-13T06:10:52.255Z,19.70
2018-12-13T06:13:22.169Z,16.27
2018-12-13T06:15:52.461Z,14.90
2018-12-13T06:18:22.140Z,16.67
2018-12-13T06:20:51.858Z,13.93
2018-12-13T06:23:21.774Z,15.43
2018-12-13T06:25:51.397Z,16.07
2018-12-13T06:28:24.068Z,16.10
2018-12-13T06:30:56.578Z,16.93
2018-12-13T06:33:26.474Z,14.20
2018-12-13T06:35:58.983Z,15.93
2018-12-13T06:38:28.938Z,17.50
2018-12-13T06:40:58.512Z,14.17
2018-12-13T06:43:28.821Z,14.30
2018-12-13T06:46:01.693Z,18.33
2018-12-13T06:48:29.503Z,18.63
2018-12-13T06:50:59.447Z,17.60
2018-12-13T06:53:29.289Z,19.37
2018-12-13T06:56:02.957Z,22.37
2018-12-13T06:58:35.488Z,23.10
2018-12-13T07:01:05.364Z,23.30
2018-12-13T07:03:35.036Z,23.90
2018-12-13T07:06:05.502Z,24.63
2018-12-13T07:08:38.083Z,21.03
2018-12-13T07:11:07.977Z,18.17
2018-12-13T07:13:40.702Z,20.27
2018-12-13T07:16:10.573Z,17.60
2018-12-13T07:18:40.416Z,18.40
2018-12-13T07:21:09.915Z,22.37
2018-12-13T07:23:39.848Z,19.80
2018-12-13T07:26:09.577Z,20.70
2018-12-13T07:28:39.124Z,21.73
2018-12-13T07:31:09.039Z,19.53
2018-12-13T07:33:38.793Z,21.50
2018-12-13T07:36:08.432Z,20.67
2018-12-13T07:38:39.224Z,22.07
2018-12-13T07:41:08.989Z,20.73
2018-12-13T07:43:37.245Z,23.67
2018-12-13T07:46:06.979Z,25.93
2018-12-13T07:48:36.564Z,23.67
2018-12-13T07:51:06.229Z,22.90
2018-12-13T07:53:38.726Z,22.10
2018-12-13T07:56:08.468Z,26.80
2018-12-13T08:01:07.321Z,19.43
2018-12-13T08:03:37.101Z,19.30
2018-12-13T08:06:09.717Z,19.73
2018-12-13T08:08:41.035Z,21.87
2018-12-13T08:11:10.854Z,23.23
2018-12-13T08:13:40.402Z,22.90
2018-12-13T08:16:10.209Z,20.33
2018-12-13T08:18:42.984Z,21.83
2018-12-13T08:21:10.862Z,20.57
2018-12-13T08:23:40.457Z,19.33
2018-12-13T08:26:10.058Z,19.97
2018-12-13T08:28:39.872Z,22.83
2018-12-13T08:31:09.748Z,19.73
2018-12-13T08:33:39.384Z,22.43
2018-12-13T08:36:09.001Z,24.30
2018-12-13T08:38:39.315Z,21.37
2018-12-13T08:41:08.317Z,23.37
2018-12-13T08:43:38.024Z,19.37
2018-12-13T08:46:07.466Z,22.17
2018-12-13T08:48:39.926Z,22.73
2018-12-13T08:51:09.596Z,22.43
2018-12-13T08:53:39.461Z,20.90
2018-12-13T08:56:09.326Z,20.20
2018-12-13T08:58:38.929Z,26.53
2018-12-13T09:01:08.875Z,17.83
2018-12-13T09:06:07.279Z,19.87
2018-12-13T09:08:37.361Z,22.67
2018-12-13T09:11:07.017Z,21.17
2018-12-13T09:13:36.678Z,19.43
2018-12-13T09:16:09.073Z,20.50
2018-12-13T09:18:39.161Z,21.00
2018-12-13T09:21:09.529Z,22.67
2018-12-13T09:23:39.012Z,21.40
2018-12-13T09:26:08.987Z,20.97
2018-12-13T09:28:38.451Z,21.67
2018-12-13T09:31:08.029Z,20.10
2018-12-13T09:33:37.534Z,21.53
2018-12-13T09:36:07.016Z,20.73
2018-12-13T09:38:39.813Z,21.30
2018-12-13T09:41:06.294Z,20.60
2018-12-13T09:43:34.203Z,21.23
2018-12-13T09:46:03.638Z,23.30
2018-12-13T09:51:36.137Z,19.03
2018-12-13T09:54:03.806Z,24.60
2018-12-13T09:56:33.545Z,22.97
2018-12-13T09:59:03.297Z,21.33
2018-12-13T10:01:33.219Z,25.53
2018-12-13T10:04:02.834Z,24.00
2018-12-13T10:09:35.157Z,25.80
2018-12-13T10:12:04.811Z,23.70
2018-12-13T10:14:34.446Z,22.93
2018-12-13T10:17:04.312Z,20.23
2018-12-13T10:19:34.043Z,22.73
2018-12-13T10:22:03.869Z,24.70
2018-12-13T10:24:33.628Z,21.77
2018-12-13T10:27:03.294Z,28.23
2018-12-13T10:29:33.019Z,23.97
2018-12-13T10:32:04.039Z,23.20
2018-12-13T10:34:33.992Z,22.23
2018-12-13T10:37:03.390Z,21.07
2018-12-13T10:39:33.268Z,26.53
2018-12-13T10:42:00.926Z,21.47
2018-12-13T10:44:33.997Z,22.47
2018-12-13T10:47:03.601Z,23.03
2018-12-13T10:49:33.313Z,22.53
2018-12-13T10:52:03.053Z,25.07
2018-12-13T10:54:35.574Z,24.83
2018-12-13T10:57:05.241Z,21.30
2018-12-13T10:59:34.861Z,23.93
2018-12-13T11:02:06.684Z,25.03
2018-12-13T11:04:36.365Z,24.77
2018-12-13T11:07:06.190Z,23.13
2018-12-13T11:09:38.786Z,23.80
2018-12-13T11:12:11.604Z,23.20
2018-12-13T11:14:44.217Z,23.43
2018-12-13T11:17:13.970Z,22.47
2018-12-13T11:19:43.739Z,25.43
2018-12-13T11:22:13.366Z,22.60
2018-12-13T11:24:43.051Z,23.37
2018-12-13T11:27:24.893Z,24.47
2018-12-13T11:30:02.598Z,24.30
2018-12-13T11:32:32.532Z,21.37
2018-12-13T11:35:04.841Z,22.60
2018-12-13T11:37:34.727Z,24.30
2018-12-13T11:40:03.534Z,26.40
2018-12-13T11:42:33.407Z,26.07
2018-12-13T11:45:04.222Z,27.57
2018-12-13T11:47:31.943Z,29.63
2018-12-13T11:50:02.129Z,25.53
2018-12-13T11:52:32.345Z,26.67
2018-12-13T11:58:07.962Z,23.57
2018-12-13T12:00:37.524Z,26.80
2018-12-13T12:03:07.394Z,29.27
2018-12-13T12:05:37.090Z,38.07
2018-12-13T12:08:06.549Z,23.77
2018-12-13T12:10:36.103Z,24.30
2018-12-13T12:13:08.574Z,31.80
2018-12-13T12:18:38.265Z,25.93
2018-12-13T12:21:08.058Z,28.10
2018-12-13T12:23:40.674Z,26.93
2018-12-13T12:26:10.573Z,27.70
2018-12-13T12:28:40.354Z,23.60
2018-12-13T12:31:10.074Z,21.43
2018-12-13T12:39:45.992Z,24.47
2018-12-13T12:42:18.674Z,20.17
2018-12-13T12:44:48.450Z,21.93
2018-12-13T12:47:18.262Z,26.67
2018-12-13T12:49:47.905Z,25.00
2018-12-13T12:52:18.365Z,26.47
2018-12-13T12:54:47.921Z,29.00
2018-12-13T12:57:20.563Z,32.87
2018-12-13T12:59:53.331Z,24.30
2018-12-13T13:02:23.194Z,22.70
2018-12-13T13:04:53.144Z,23.23
2018-12-13T13:07:23.380Z,22.73
2018-12-13T13:09:53.192Z,20.53
2018-12-13T13:12:23.026Z,19.93
2018-12-13T13:14:55.398Z,29.67
2018-12-13T13:17:25.228Z,17.53
2018-12-13T13:19:54.732Z,21.53
2018-12-13T13:22:24.549Z,23.20
2018-12-13T13:24:57.221Z,23.03
2018-12-13T13:27:27.169Z,25.73
2018-12-13T13:29:56.979Z,27.07
2018-12-13T13:32:30.670Z,23.60
2018-12-13T13:35:00.433Z,15.83
2018-12-13T13:37:29.986Z,19.27
2018-12-13T13:39:59.810Z,23.03
2018-12-13T13:42:29.663Z,24.57
2018-12-13T13:48:03.153Z,18.97
2018-12-13T13:50:35.458Z,20.10
2018-12-13T13:53:05.406Z,20.97
2018-12-13T13:55:37.791Z,19.37
2018-12-13T13:58:07.732Z,24.87
2018-12-13T14:00:37.518Z,26.50
2018-12-13T14:03:07.168Z,22.03
2018-12-13T14:05:36.884Z,30.37
2018-12-13T14:08:04.636Z,35.07
2018-12-13T14:10:34.535Z,22.20
2018-12-13T14:13:04.198Z,22.20
2018-12-13T14:15:34.002Z,25.20
2018-12-13T14:18:03.982Z,24.83
2018-12-13T14:20:33.810Z,19.93
2018-12-13T14:23:04.141Z,21.47
2018-12-13T14:25:34.470Z,20.37
2018-12-13T14:28:03.943Z,18.60
2018-12-13T14:30:33.569Z,17.90
2018-12-13T14:33:03.333Z,21.77
2018-12-13T14:35:33.020Z,21.20
2018-12-13T14:38:02.700Z,17.93
2018-12-13T14:40:32.126Z,24.10
2018-12-13T14:43:01.669Z,23.40
2018-12-13T14:45:34.009Z,27.60
2018-12-13T14:48:03.606Z,21.20
2018-12-13T14:50:33.318Z,24.33
2018-12-13T14:53:03.122Z,30.00
2018-12-13T14:55:32.619Z,24.83
2018-12-13T14:58:05.034Z,24.93
2018-12-13T15:00:34.577Z,23.93
2018-12-13T15:03:07.264Z,22.77
2018-12-13T15:05:35.082Z,29.90
2018-12-13T15:08:07.518Z,26.20
2018-12-13T15:10:37.349Z,31.77
2018-12-13T15:13:07.231Z,30.13
2018-12-13T15:15:41.021Z,33.23
2018-12-13T15:18:10.449Z,39.07
2018-12-13T15:20:40.191Z,34.27
2018-12-13T15:23:09.973Z,35.47
2018-12-13T15:25:39.398Z,34.90
2018-12-13T15:28:09.026Z,24.97
2018-12-13T15:30:36.945Z,28.57
2018-12-13T15:36:09.349Z,27.67
2018-12-13T15:38:39.149Z,20.03
2018-12-13T15:41:08.769Z,29.13
2018-12-13T15:43:38.614Z,22.83
2018-12-13T15:46:08.204Z,29.43
2018-12-13T15:48:37.735Z,30.57
2018-12-13T15:51:07.486Z,28.00
2018-12-13T15:53:37.164Z,23.53
2018-12-13T15:56:06.827Z,31.40
2018-12-13T15:58:36.485Z,29.13
2018-12-13T16:04:11.573Z,22.40
2018-12-13T16:06:41.158Z,22.67
2018-12-13T16:09:10.898Z,18.30
2018-12-13T16:11:40.723Z,19.27
2018-12-13T16:14:10.622Z,19.13
2018-12-13T16:16:40.172Z,18.73
2018-12-13T16:19:10.031Z,17.67
2018-12-13T16:21:39.643Z,20.20
2018-12-13T16:24:09.204Z,18.63
2018-12-13T16:26:41.742Z,17.50
2018-12-13T16:29:13.063Z,19.10
2018-12-13T16:34:45.589Z,14.83
2018-12-13T16:37:13.286Z,17.70
2018-12-13T16:39:43.025Z,20.03
2018-12-13T16:42:11.430Z,16.83
2018-12-13T16:44:41.364Z,16.83
2018-12-13T16:47:10.942Z,22.13
2018-12-13T16:49:40.764Z,18.33
2018-12-13T16:52:10.239Z,16.83
2018-12-13T16:54:39.872Z,21.37
2018-12-13T16:57:09.926Z,17.63
2018-12-13T17:02:45.582Z,21.93
2018-12-13T17:05:15.474Z,16.73
2018-12-13T17:07:45.328Z,17.13
2018-12-13T17:10:16.957Z,16.03
2018-12-13T17:12:46.269Z,17.80
2018-12-13T17:15:16.126Z,18.37
2018-12-13T17:17:45.719Z,18.37
2018-12-13T17:20:13.317Z,20.73
2018-12-13T17:22:44.094Z,17.20
2018-12-13T17:25:13.708Z,20.23
2018-12-13T17:30:46.077Z,19.03
2018-12-13T17:33:16.084Z,18.67
2018-12-13T17:35:45.928Z,17.93
2018-12-13T17:38:15.544Z,16.87
2018-12-13T17:46:53.987Z,16.73
2018-12-13T17:49:25.180Z,21.80
2018-12-13T17:51:53.050Z,20.77
2018-12-13T17:54:22.821Z,21.07
2018-12-13T17:56:52.858Z,18.67
2018-12-13T18:02:25.597Z,19.87
2018-12-13T18:04:55.405Z,16.50
2018-12-13T18:07:25.728Z,21.53
2018-12-13T18:09:55.965Z,18.97
2018-12-13T18:12:23.833Z,19.13
2018-12-13T18:14:53.469Z,18.77
2018-12-13T18:17:24.305Z,19.13
2018-12-13T18:19:54.149Z,23.60
2018-12-13T18:22:22.793Z,23.35
2018-12-13T18:24:52.762Z,18.87
2018-12-13T18:27:22.267Z,20.97
2018-12-13T18:32:57.940Z,21.87
2018-12-13T18:35:27.948Z,19.80
2018-12-13T18:37:57.969Z,19.07
2018-12-13T18:40:27.991Z,23.73
2018-12-13T18:42:57.707Z,20.83
2018-12-13T18:45:29.664Z,19.70
2018-12-13T18:47:59.916Z,19.67
2018-12-13T18:50:32.889Z,25.17
2018-12-13T18:53:02.842Z,23.53
2018-12-13T18:55:32.651Z,22.93
2018-12-13T19:01:10.413Z,22.60
2018-12-13T19:03:40.415Z,19.83
2018-12-13T19:06:08.288Z,22.80
2018-12-13T19:08:38.386Z,18.20
2018-12-13T19:11:07.925Z,20.57
2018-12-13T19:13:37.564Z,19.93
2018-12-13T19:16:07.132Z,20.67
2018-12-13T19:18:36.701Z,18.77
2018-12-13T19:21:04.276Z,22.47
2018-12-13T19:23:31.913Z,24.10
2018-12-13T19:26:01.603Z,20.80
2018-12-13T19:28:31.295Z,21.07
2018-12-13T19:31:01.010Z,21.70
2018-12-13T19:33:30.664Z,21.90
2018-12-13T19:36:00.293Z,20.37
2018-12-13T19:38:29.966Z,21.57
2018-12-13T19:44:04.545Z,22.40
2018-12-13T19:46:36.960Z,22.03
2018-12-13T19:49:07.163Z,21.67
2018-12-13T19:51:36.758Z,23.03
2018-12-13T19:54:04.349Z,20.87
2018-12-13T19:56:33.962Z,23.10
2018-12-13T19:59:03.605Z,23.10
2018-12-13T20:01:31.139Z,23.17
2018-12-13T20:04:04.483Z,23.40
2018-12-13T20:06:34.366Z,20.27
2018-12-13T20:11:33.454Z,23.73
2018-12-13T20:14:04.181Z,22.07
2018-12-13T20:16:33.895Z,21.00
2018-12-13T20:19:01.552Z,24.40
2018-12-13T20:21:31.277Z,23.07
2018-12-13T20:24:00.107Z,24.53
2018-12-13T20:29:33.830Z,23.43
2018-12-13T20:35:07.330Z,22.47
2018-12-13T20:40:40.712Z,24.77
2018-12-13T20:43:13.382Z,22.60
2018-12-13T20:45:41.253Z,23.20
2018-12-13T20:51:16.445Z,26.40
2018-12-13T20:53:47.248Z,24.07
2018-12-13T20:56:20.674Z,28.33
2018-12-13T20:58:51.162Z,24.17
2018-12-13T21:04:25.414Z,24.27
2018-12-13T21:07:01.289Z,22.70
2018-12-13T21:09:33.642Z,23.90
2018-12-13T21:12:02.815Z,23.50
2018-12-13T21:14:32.289Z,25.30
2018-12-13T21:17:02.160Z,21.03
2018-12-13T21:19:31.704Z,23.60
2018-12-13T21:22:01.325Z,24.53
2018-12-13T21:24:28.785Z,23.30
2018-12-13T21:26:58.653Z,23.17
2018-12-13T21:29:28.376Z,23.10
2018-12-13T21:31:58.039Z,25.30
2018-12-13T21:34:27.714Z,21.23
2018-12-13T21:36:57.268Z,24.07
2018-12-13T21:39:24.855Z,25.60
2018-12-13T21:41:54.818Z,27.97
2018-12-13T21:44:24.254Z,25.57
2018-12-13T21:46:54.032Z,27.23
2018-12-13T21:49:23.708Z,20.23
2018-12-13T21:51:53.341Z,25.10
2018-12-13T21:54:22.933Z,24.13
2018-12-13T21:56:52.776Z,22.37
2018-12-13T22:02:27.158Z,20.87
2018-12-13T22:04:56.826Z,24.60
2018-12-13T22:23:29.914Z,22.90
2018-12-13T22:25:59.574Z,20.50
2018-12-13T22:28:29.039Z,21.87
2018-12-13T22:30:59.816Z,23.10
2018-12-13T22:33:29.623Z,24.03
2018-12-13T22:36:02.297Z,27.77
2018-12-13T22:41:36.939Z,24.37
2018-12-13T22:44:09.162Z,24.93
2018-12-13T22:46:39.189Z,23.10
2018-12-13T22:49:11.482Z,21.30
2018-12-13T22:51:41.282Z,21.10
2018-12-13T22:54:11.064Z,25.10
2018-12-13T22:56:40.897Z,25.43
2018-12-13T22:59:14.446Z,24.20
2018-12-13T23:01:44.412Z,18.20
2018-12-13T23:04:11.972Z,22.33
2018-12-13T23:06:41.718Z,20.87
2018-12-13T23:09:11.301Z,22.13
2018-12-13T23:11:42.198Z,23.93
2018-12-13T23:14:11.809Z,23.43
2018-12-13T23:16:41.612Z,22.27
2018-12-13T23:19:09.264Z,21.20
2018-12-13T23:21:38.848Z,22.77
2018-12-13T23:24:11.361Z,21.83
2018-12-13T23:26:41.199Z,25.37
2018-12-13T23:29:11.963Z,26.27
2018-12-13T23:31:41.785Z,24.13
2018-12-13T23:34:11.499Z,25.17
2018-12-13T23:36:41.325Z,21.40
2018-12-13T23:39:09.052Z,23.53
2018-12-13T23:41:39.542Z,24.97
2018-12-13T23:44:09.601Z,25.20
2018-12-13T23:46:41.681Z,25.20
2018-12-13T23:49:09.264Z,28.30
2018-12-13T23:51:45.769Z,29.13
2018-12-13T23:54:15.384Z,23.73
2018-12-13T23:56:47.825Z,20.57
2018-12-13T23:59:17.463Z,21.73
